This is the latest recevied weather packets stored in our database for station/object LRSM. If no packets are shown the sender has not sent any weather packets the latest 1 day(s).
| Time | Temp. | Humidity | Pressure | Rain* | Wind** | Luminosity | Snow |
|---|---|---|---|---|---|---|---|
| 1836274139 | 12.22° C | 94% | 1027 hPa | - | 0.45 m/s, 150° | - | - |
| 1778042928 | 15° C | 59% | 1012 hPa | - | 0.45 m/s, 150° | - | - |
| 1778042016 | 15° C | 59% | 1012 hPa | - | 0.45 m/s, 150° | - | - |
| 1778041113 | 12.22° C | 63% | 1012 hPa | - | 2.24 m/s, 170° | - | - |
| 1778040212 | 12.22° C | 63% | 1012 hPa | - | 2.24 m/s, 170° | - | - |
| 1778039313 | 10° C | 67% | 1012 hPa | - | 4.02 m/s, 190° | - | - |
| 1778038412 | 10° C | 67% | 1012 hPa | - | 4.02 m/s, 190° | - | - |
| 1778037512 | 10° C | 67% | 1012 hPa | - | 3.58 m/s, 190° | - | - |
| 1778036612 | 10° C | 67% | 1012 hPa | - | 3.58 m/s, 190° | - | - |
| 1778035712 | 10° C | 67% | 1012 hPa | - | 3.58 m/s, 190° | - | - |
| 1778034812 | 10° C | 67% | 1012 hPa | - | 3.58 m/s, 190° | - | - |
| 1778033912 | 10° C | 67% | 1012 hPa | - | 3.13 m/s, 220° | - | - |
| 1778033012 | 10° C | 67% | 1012 hPa | - | 3.13 m/s, 220° | - | - |
| 1778032112 | 10° C | 67% | 1012 hPa | - | 1.34 m/s, 210° | - | - |
| 1778031212 | 10° C | 67% | 1012 hPa | - | 1.34 m/s, 210° | - | - |
| 1778030313 | 8.89° C | 71% | 1012 hPa | - | 3.58 m/s, 280° | - | - |
| 1778029412 | 8.89° C | 71% | 1012 hPa | - | 3.58 m/s, 280° | - | - |
| 1778028512 | 8.89° C | 71% | 1011 hPa | - | 0.89 m/s, 80° | - | - |
| 1778027692 | 8.89° C | 71% | 1011 hPa | - | 0.89 m/s, 80° | - | - |
| 1778026713 | 10° C | 67% | 1011 hPa | - | 0.89 m/s, 100° | - | - |
| 1778025813 | 10° C | 67% | 1011 hPa | - | 0.89 m/s, 100° | - | - |
| 1778024912 | 10° C | 67% | 1011 hPa | - | 0.45 m/s, 90° | - | - |
| 1778024012 | 10° C | 67% | 1011 hPa | - | 0.45 m/s, 90° | - | - |
| 1778023112 | 10° C | 67% | 1011 hPa | - | 0.89 m/s, 90° | - | - |
| 1778022213 | 10° C | 67% | 1011 hPa | - | 0.89 m/s, 90° | - | - |
* Rain since midnight (hover to see other rain measurements)
** Current wind speed in m/s (hover to see current wind gust speed)